Wetterdaten: Woche 27.07.20 - 02.08.20 (KW31)
Datum Zeit Temp. 2m rel. Feuchte Luftdruck Regen Wind Richtung Sonne ET UV-Index Solar Taupunkt Ben
27.07.2020 00:00 17,2 C 78 % 1016,3 hPa 0,0 mm 0,6 km/h (0 Bft) O 0,00 h 0,0 mm 0,0 UV-I 0 W/m 13,3 C 2,0 km/h (1 Bft)
27.07.2020 01:00 17,0 C 76 % 1016,5 hPa 0,0 mm 1,6 km/h (1 Bft) O 0,00 h 0,0 mm 0,0 UV-I 0 W/m 12,8 C 4,6 km/h (1 Bft)
27.07.2020 02:00 16,5 C 77 % 1016,4 hPa 0,0 mm 0,0 km/h (0 Bft) N 0,00 h 0,0 mm 0,0 UV-I 0 W/m 12,4 C 0,0 km/h (0 Bft)
27.07.2020 03:00 15,7 C 79 % 1016,3 hPa 0,0 mm 0,4 km/h (0 Bft) W-SW 0,00 h 0,0 mm 0,0 UV-I 0 W/m 12,0 C 2,6 km/h (1 Bft)
27.07.2020 04:00 15,1 C 80 % 1016,5 hPa 0,0 mm 0,7 km/h (0 Bft) W-SW 0,00 h 0,0 mm 0,0 UV-I 0 W/m 11,7 C 4,1 km/h (1 Bft)
27.07.2020 05:00 15,1 C 81 % 1016,3 hPa 0,0 mm 0,7 km/h (0 Bft) SW 0,00 h 0,0 mm 0,0 UV-I 4 W/m 11,8 C 7,0 km/h (2 Bft)
27.07.2020 06:00 15,3 C 81 % 1016,2 hPa 0,0 mm 0,3 km/h (0 Bft) N 0,08 h 0,0 mm 0,0 UV-I 16 W/m 12,0 C 3,7 km/h (1 Bft)
27.07.2020 07:00 15,4 C 82 % 1016,0 hPa 0,0 mm 0,2 km/h (0 Bft) N 0,00 h 0,0 mm 0,0 UV-I 75 W/m 12,3 C 3,1 km/h (1 Bft)
27.07.2020 08:00 16,4 C 82 % 1015,8 hPa 0,0 mm 0,3 km/h (0 Bft) N 0,00 h 0,0 mm 0,0 UV-I 120 W/m 13,3 C 3,7 km/h (1 Bft)
27.07.2020 09:00 17,2 C 81 % 1015,3 hPa 0,0 mm 0,6 km/h (0 Bft) O 0,00 h 0,1 mm 0,0 UV-I 137 W/m 14,0 C 6,8 km/h (2 Bft)
27.07.2020 10:00 17,9 C 80 % 1015,0 hPa 0,0 mm 0,6 km/h (0 Bft) O 0,00 h 0,1 mm 0,4 UV-I 184 W/m 14,4 C 5,6 km/h (1 Bft)
27.07.2020 11:00 19,2 C 75 % 1014,4 hPa 0,0 mm 0,7 km/h (0 Bft) O 0,08 h 0,1 mm 0,8 UV-I 299 W/m 14,6 C 5,9 km/h (2 Bft)
27.07.2020 12:00 21,7 C 66 % 1013,3 hPa 0,0 mm 1,2 km/h (1 Bft) O 0,58 h 0,2 mm 2,0 UV-I 477 W/m 15,0 C 7,8 km/h (2 Bft)
27.07.2020 13:00 25,8 C 49 % 1012,2 hPa 0,0 mm 2,9 km/h (1 Bft) SW 1,00 h 0,3 mm 3,8 UV-I 1028 W/m 14,1 C 14,0 km/h (3 Bft)
27.07.2020 14:00 27,6 C 35 % 1011,3 hPa 0,0 mm 7,4 km/h (2 Bft) SW 1,00 h 0,5 mm 3,9 UV-I 880 W/m 10,9 C 19,1 km/h (3 Bft)
27.07.2020 15:00 28,5 C 32 % 1010,5 hPa 0,0 mm 8,8 km/h (2 Bft) W-SW 0,67 h 0,6 mm 2,3 UV-I 723 W/m 10,3 C 22,4 km/h (4 Bft)
27.07.2020 16:00 27,6 C 34 % 1009,5 hPa 0,0 mm 6,8 km/h (2 Bft) SW 0,33 h 0,4 mm 1,0 UV-I 368 W/m 10,5 C 16,5 km/h (3 Bft)
27.07.2020 17:00 28,6 C 31 % 1008,2 hPa 0,0 mm 6,4 km/h (2 Bft) SW 0,58 h 0,3 mm 0,7 UV-I 378 W/m 9,9 C 14,4 km/h (3 Bft)
27.07.2020 18:00 29,0 C 31 % 1007,3 hPa 0,0 mm 5,0 km/h (1 Bft) SW 0,08 h 0,3 mm 0,0 UV-I 170 W/m 9,9 C 13,1 km/h (3 Bft)
27.07.2020 19:00 28,8 C 33 % 1006,4 hPa 0,0 mm 4,5 km/h (1 Bft) SW 0,50 h 0,2 mm 0,0 UV-I 156 W/m 10,9 C 12,0 km/h (2 Bft)
27.07.2020 20:00 28,4 C 32 % 1006,3 hPa 0,0 mm 3,0 km/h (1 Bft) W-NW 0,17 h 0,1 mm 0,0 UV-I 54 W/m 10,3 C 8,9 km/h (2 Bft)
27.07.2020 21:00 27,2 C 35 % 1006,4 hPa 0,0 mm 1,4 km/h (1 Bft) W-NW 0,17 h 0,1 mm 0,0 UV-I 12 W/m 10,5 C 5,5 km/h (1 Bft)
27.07.2020 22:00 25,0 C 41 % 1006,4 hPa 0,0 mm 1,0 km/h (0 Bft) W 0,00 h 0,0 mm 0,0 UV-I 0 W/m 10,9 C 4,0 km/h (1 Bft)
27.07.2020 23:00 23,6 C 42 % 1006,3 hPa 0,0 mm 1,6 km/h (1 Bft) W-SW 0,00 h 0,0 mm 0,0 UV-I 0 W/m 9,9 C 4,6 km/h (1 Bft)
28.07.2020 00:00 23,0 C 43 % 1006,9 hPa 0,0 mm 7,2 km/h (2 Bft) N 0,00 h 0,0 mm 0,0 UV-I 0 W/m 9,7 C 15,0 km/h (3 Bft)
28.07.2020 01:00 20,4 C 59 % 1007,7 hPa 0,0 mm 3,3 km/h (1 Bft) N-NW 0,00 h 0,1 mm 0,0 UV-I 0 W/m 12,0 C 8,9 km/h (2 Bft)
28.07.2020 02:00 19,1 C 65 % 1008,1 hPa 0,0 mm 3,1 km/h (1 Bft) N 0,00 h 0,0 mm 0,0 UV-I 0 W/m 12,4 C 9,3 km/h (2 Bft)
28.07.2020 03:00 18,8 C 68 % 1008,2 hPa 0,0 mm 4,4 km/h (1 Bft) N 0,00 h 0,0 mm 0,0 UV-I 0 W/m 12,7 C 11,1 km/h (2 Bft)
28.07.2020 04:00 19,8 C 69 % 1008,5 hPa 0,0 mm 8,4 km/h (2 Bft) N 0,00 h 0,0 mm 0,0 UV-I 0 W/m 13,8 C 20,4 km/h (4 Bft)
28.07.2020 05:00 19,7 C 71 % 1009,1 hPa 0,0 mm 11,2 km/h (2 Bft) NW 0,00 h 0,0 mm 0,0 UV-I 0 W/m 14,4 C 25,0 km/h (4 Bft)
28.07.2020 06:00 19,3 C 72 % 1009,6 hPa 0,0 mm 11,4 km/h (2 Bft) N 0,00 h 0,0 mm 0,0 UV-I 21 W/m 14,2 C 24,2 km/h (4 Bft)
28.07.2020 07:00 19,2 C 73 % 1009,9 hPa 0,0 mm 9,5 km/h (2 Bft) N 0,00 h 0,1 mm 0,0 UV-I 54 W/m 14,2 C 22,4 km/h (4 Bft)
28.07.2020 08:00 19,6 C 71 % 1010,3 hPa 0,0 mm 12,8 km/h (3 Bft) O 0,92 h 0,1 mm 0,0 UV-I 260 W/m 14,1 C 28,9 km/h (5 Bft)
28.07.2020 09:00 20,3 C 68 % 1010,6 hPa 0,0 mm 15,3 km/h (3 Bft) O 0,33 h 0,1 mm 0,4 UV-I 270 W/m 14,1 C 30,9 km/h (5 Bft)
28.07.2020 10:00 20,9 C 65 % 1011,0 hPa 0,0 mm 16,9 km/h (3 Bft) N 0,08 h 0,2 mm 0,7 UV-I 250 W/m 14,1 C 35,7 km/h (5 Bft)
28.07.2020 11:00 21,7 C 59 % 1011,3 hPa 0,0 mm 15,9 km/h (3 Bft) N-NW 0,67 h 0,2 mm 1,4 UV-I 659 W/m 13,3 C 34,8 km/h (5 Bft)
28.07.2020 12:00 22,9 C 52 % 1011,5 hPa 0,0 mm 15,1 km/h (3 Bft) O 0,92 h 0,4 mm 3,0 UV-I 822 W/m 12,4 C 34,4 km/h (5 Bft)
28.07.2020 13:00 22,8 C 54 % 1012,0 hPa 0,0 mm 5,6 km/h (1 Bft) O 0,67 h 0,5 mm 2,8 UV-I 756 W/m 13,1 C 22,0 km/h (4 Bft)
28.07.2020 14:00 23,4 C 50 % 1012,2 hPa 0,0 mm 12,9 km/h (3 Bft) N-NO 0,50 h 0,4 mm 2,3 UV-I 583 W/m 12,5 C 33,3 km/h (5 Bft)
28.07.2020 15:00 23,7 C 45 % 1012,5 hPa 0,0 mm 15,9 km/h (3 Bft) N-NO 0,67 h 0,4 mm 2,0 UV-I 655 W/m 10,9 C 37,0 km/h (5 Bft)
28.07.2020 16:00 23,5 C 41 % 1013,1 hPa 0,0 mm 13,5 km/h (3 Bft) N-NO 0,83 h 0,4 mm 1,7 UV-I 597 W/m 9,5 C 34,1 km/h (5 Bft)
28.07.2020 17:00 23,2 C 40 % 1013,6 hPa 0,0 mm 13,5 km/h (3 Bft) N 0,75 h 0,4 mm 1,0 UV-I 489 W/m 8,8 C 33,1 km/h (5 Bft)
28.07.2020 18:00 22,4 C 42 % 1013,8 hPa 0,0 mm 14,6 km/h (3 Bft) O 0,25 h 0,3 mm 0,1 UV-I 193 W/m 8,7 C 33,7 km/h (5 Bft)
28.07.2020 19:00 22,0 C 45 % 1014,1 hPa 0,0 mm 7,8 km/h (2 Bft) N 0,33 h 0,2 mm 0,0 UV-I 122 W/m 9,6 C 23,5 km/h (4 Bft)
28.07.2020 20:00 20,9 C 51 % 1014,5 hPa 0,0 mm 1,3 km/h (1 Bft) N-NW 0,42 h 0,1 mm 0,0 UV-I 56 W/m 10,5 C 6,6 km/h (2 Bft)
28.07.2020 21:00 19,4 C 59 % 1015,4 hPa 0,0 mm 0,7 km/h (0 Bft) N 0,08 h 0,1 mm 0,0 UV-I 8 W/m 11,3 C 5,4 km/h (1 Bft)
28.07.2020 22:00 17,9 C 63 % 1016,3 hPa 0,0 mm 1,3 km/h (1 Bft) N-NO 0,00 h 0,0 mm 0,0 UV-I 0 W/m 10,7 C 6,6 km/h (2 Bft)
28.07.2020 23:00 17,3 C 62 % 1016,8 hPa 0,0 mm 1,1 km/h (0 Bft) N-NO 0,00 h 0,0 mm 0,0 UV-I 0 W/m 10,0 C 7,6 km/h (2 Bft)
29.07.2020 00:00 17,0 C 60 % 1017,0 hPa 0,0 mm 1,7 km/h (1 Bft) N 0,00 h 0,0 mm 0,0 UV-I 0 W/m 9,3 C 6,8 km/h (2 Bft)
29.07.2020 01:00 16,6 C 62 % 1017,2 hPa 0,0 mm 1,0 km/h (0 Bft) N 0,00 h 0,0 mm 0,0 UV-I 0 W/m 9,4 C 3,9 km/h (1 Bft)
29.07.2020 02:00 16,4 C 65 % 1017,4 hPa 0,0 mm 2,7 km/h (1 Bft) NW 0,00 h 0,0 mm 0,0 UV-I 0 W/m 9,8 C 6,5 km/h (2 Bft)
29.07.2020 03:00 16,1 C 68 % 1017,3 hPa 0,0 mm 3,1 km/h (1 Bft) O 0,00 h 0,0 mm 0,0 UV-I 0 W/m 10,2 C 7,2 km/h (2 Bft)
29.07.2020 04:00 15,7 C 71 % 1017,5 hPa 0,0 mm 3,9 km/h (1 Bft) O 0,00 h 0,0 mm 0,0 UV-I 0 W/m 10,4 C 8,9 km/h (2 Bft)
29.07.2020 05:00 14,6 C 74 % 1017,9 hPa 0,0 mm 5,0 km/h (1 Bft) NW 0,00 h 0,0 mm 0,0 UV-I 0 W/m 10,0 C 11,1 km/h (2 Bft)
29.07.2020 06:00 13,7 C 79 % 1018,3 hPa 0,0 mm 5,3 km/h (1 Bft) N-NW 0,00 h 0,0 mm 0,0 UV-I 32 W/m 10,0 C 12,4 km/h (3 Bft)
29.07.2020 07:00 14,2 C 80 % 1018,9 hPa 0,0 mm 8,9 km/h (2 Bft) N-NW 0,42 h 0,0 mm 0,0 UV-I 123 W/m 10,7 C 17,8 km/h (3 Bft)
29.07.2020 08:00 15,4 C 77 % 1019,5 hPa 0,0 mm 11,6 km/h (2 Bft) N-NO 1,00 h 0,0 mm 0,0 UV-I 278 W/m 11,4 C 24,3 km/h (4 Bft)
29.07.2020 09:00 16,6 C 71 % 1019,9 hPa 0,0 mm 7,0 km/h (2 Bft) O 1,00 h 0,1 mm 0,2 UV-I 504 W/m 11,3 C 19,8 km/h (4 Bft)
29.07.2020 10:00 18,0 C 64 % 1020,1 hPa 0,0 mm 9,5 km/h (2 Bft) O 1,00 h 0,2 mm 1,0 UV-I 753 W/m 11,1 C 23,2 km/h (4 Bft)
29.07.2020 11:00 18,9 C 58 % 1020,1 hPa 0,0 mm 7,8 km/h (2 Bft) N 0,42 h 0,4 mm 1,3 UV-I 430 W/m 10,5 C 18,7 km/h (3 Bft)
29.07.2020 12:00 19,7 C 54 % 1020,3 hPa 0,0 mm 5,6 km/h (1 Bft) N 0,33 h 0,3 mm 2,0 UV-I 467 W/m 10,0 C 17,9 km/h (3 Bft)
29.07.2020 13:00 20,7 C 49 % 1020,4 hPa 0,0 mm 7,0 km/h (2 Bft) N-NO 0,50 h 0,3 mm 2,3 UV-I 598 W/m 9,8 C 19,8 km/h (4 Bft)
29.07.2020 14:00 21,2 C 48 % 1020,0 hPa 0,0 mm 6,1 km/h (2 Bft) N-NO 0,42 h 0,3 mm 2,6 UV-I 645 W/m 9,7 C 21,5 km/h (4 Bft)
29.07.2020 15:00 21,8 C 46 % 1019,7 hPa 0,0 mm 4,0 km/h (1 Bft) O 0,58 h 0,4 mm 2,3 UV-I 631 W/m 9,6 C 15,7 km/h (3 Bft)
29.07.2020 16:00 23,5 C 41 % 1019,5 hPa 0,0 mm 7,5 km/h (2 Bft) N-NO 1,00 h 0,4 mm 2,3 UV-I 799 W/m 9,5 C 21,5 km/h (4 Bft)
29.07.2020 17:00 23,9 C 40 % 1019,4 hPa 0,0 mm 5,2 km/h (1 Bft) N-NO 1,00 h 0,5 mm 1,2 UV-I 652 W/m 9,4 C 17,0 km/h (3 Bft)
29.07.2020 18:00 23,6 C 40 % 1019,3 hPa 0,0 mm 5,0 km/h (1 Bft) N 1,00 h 0,4 mm 0,5 UV-I 444 W/m 9,3 C 14,8 km/h (3 Bft)
29.07.2020 19:00 23,1 C 42 % 1019,0 hPa 0,0 mm 3,1 km/h (1 Bft) N-NW 1,00 h 0,3 mm 0,0 UV-I 260 W/m 9,5 C 13,1 km/h (3 Bft)
29.07.2020 20:00 21,6 C 46 % 1019,0 hPa 0,0 mm 0,0 km/h (0 Bft) N 0,25 h 0,2 mm 0,0 UV-I 52 W/m 9,5 C 0,0 km/h (0 Bft)
29.07.2020 21:00 19,6 C 53 % 1019,4 hPa 0,0 mm 0,0 km/h (0 Bft) N 0,08 h 0,0 mm 0,0 UV-I 9 W/m 9,7 C 0,0 km/h (0 Bft)
29.07.2020 22:00 18,1 C 60 % 1019,6 hPa 0,0 mm 0,0 km/h (0 Bft) N 0,00 h 0,0 mm 0,0 UV-I 0 W/m 10,0 C 0,0 km/h (0 Bft)
29.07.2020 23:00 16,7 C 65 % 1020,2 hPa 0,0 mm 0,0 km/h (0 Bft) N 0,00 h 0,0 mm 0,0 UV-I 0 W/m 10,0 C 0,0 km/h (0 Bft)
30.07.2020 00:00 15,4 C 70 % 1020,4 hPa 0,0 mm 0,0 km/h (0 Bft) N 0,00 h 0,0 mm 0,0 UV-I 0 W/m 9,9 C 0,0 km/h (0 Bft)
30.07.2020 01:00 14,4 C 74 % 1020,4 hPa 0,0 mm 0,0 km/h (0 Bft) N 0,00 h 0,0 mm 0,0 UV-I 0 W/m 9,8 C 0,0 km/h (0 Bft)
30.07.2020 02:00 13,7 C 77 % 1020,5 hPa 0,0 mm 0,0 km/h (0 Bft) N 0,00 h 0,0 mm 0,0 UV-I 0 W/m 9,7 C 0,0 km/h (0 Bft)
30.07.2020 03:00 13,2 C 78 % 1020,5 hPa 0,0 mm 0,0 km/h (0 Bft) N 0,00 h 0,0 mm 0,0 UV-I 0 W/m 9,5 C 0,0 km/h (0 Bft)
30.07.2020 04:00 12,5 C 81 % 1020,7 hPa 0,0 mm 0,0 km/h (0 Bft) N 0,00 h 0,0 mm 0,0 UV-I 0 W/m 9,3 C 0,0 km/h (0 Bft)
30.07.2020 05:00 11,9 C 83 % 1020,7 hPa 0,0 mm 0,0 km/h (0 Bft) N 0,00 h 0,0 mm 0,0 UV-I 2 W/m 9,1 C 0,0 km/h (0 Bft)
30.07.2020 06:00 11,7 C 85 % 1020,8 hPa 0,0 mm 0,0 km/h (0 Bft) N 0,08 h 0,0 mm 0,0 UV-I 35 W/m 9,2 C 0,0 km/h (0 Bft)
30.07.2020 07:00 12,8 C 85 % 1021,0 hPa 0,0 mm 0,8 km/h (0 Bft) SW 0,83 h 0,0 mm 0,0 UV-I 131 W/m 10,3 C 5,0 km/h (1 Bft)
30.07.2020 08:00 15,2 C 77 % 1021,0 hPa 0,0 mm 1,6 km/h (1 Bft) SW 1,00 h 0,0 mm 0,0 UV-I 287 W/m 11,2 C 5,3 km/h (1 Bft)
30.07.2020 09:00 17,6 C 66 % 1021,2 hPa 0,0 mm 2,6 km/h (1 Bft) SW 1,00 h 0,1 mm 0,4 UV-I 511 W/m 11,1 C 8,9 km/h (2 Bft)
30.07.2020 10:00 20,0 C 56 % 1021,0 hPa 0,0 mm 3,1 km/h (1 Bft) SW 1,00 h 0,2 mm 1,0 UV-I 709 W/m 10,9 C 10,0 km/h (2 Bft)
30.07.2020 11:00 22,2 C 49 % 1020,9 hPa 0,0 mm 2,6 km/h (1 Bft) S-SW 1,00 h 0,4 mm 2,0 UV-I 876 W/m 10,8 C 8,7 km/h (2 Bft)
30.07.2020 12:00 24,3 C 41 % 1020,6 hPa 0,0 mm 2,8 km/h (1 Bft) S-SW 1,00 h 0,5 mm 3,5 UV-I 921 W/m 10,1 C 9,3 km/h (2 Bft)
30.07.2020 13:00 26,0 C 35 % 1020,2 hPa 0,0 mm 2,6 km/h (1 Bft) SW 1,00 h 0,5 mm 3,8 UV-I 941 W/m 9,1 C 8,1 km/h (2 Bft)
30.07.2020 14:00 26,8 C 31 % 1019,7 hPa 0,0 mm 2,6 km/h (1 Bft) N-NW 1,00 h 0,5 mm 4,0 UV-I 1016 W/m 8,1 C 9,1 km/h (2 Bft)
30.07.2020 15:00 27,6 C 29 % 1019,3 hPa 0,0 mm 0,8 km/h (0 Bft) S 1,00 h 0,6 mm 3,2 UV-I 941 W/m 7,8 C 5,0 km/h (1 Bft)
30.07.2020 16:00 27,8 C 27 % 1018,8 hPa 0,0 mm 0,8 km/h (0 Bft) SW 1,00 h 0,5 mm 2,3 UV-I 814 W/m 7,1 C 4,0 km/h (1 Bft)
30.07.2020 17:00 28,1 C 27 % 1018,4 hPa 0,0 mm 0,7 km/h (0 Bft) W-SW 1,00 h 0,4 mm 1,2 UV-I 650 W/m 7,5 C 3,9 km/h (1 Bft)
30.07.2020 18:00 27,7 C 28 % 1017,9 hPa 0,0 mm 0,3 km/h (0 Bft) N-NW 1,00 h 0,4 mm 0,5 UV-I 459 W/m 7,5 C 3,0 km/h (1 Bft)
30.07.2020 19:00 27,4 C 28 % 1017,5 hPa 0,0 mm 0,3 km/h (0 Bft) NW 1,00 h 0,3 mm 0,0 UV-I 262 W/m 7,0 C 2,6 km/h (1 Bft)
30.07.2020 20:00 26,5 C 30 % 1017,4 hPa 0,0 mm 0,0 km/h (0 Bft) N 0,42 h 0,2 mm 0,0 UV-I 68 W/m 7,6 C 0,2 km/h (0 Bft)
30.07.2020 21:00 23,9 C 43 % 1017,5 hPa 0,0 mm 0,0 km/h (0 Bft) N 0,00 h 0,1 mm 0,0 UV-I 9 W/m 10,5 C 0,0 km/h (0 Bft)
30.07.2020 22:00 20,9 C 53 % 1017,8 hPa 0,0 mm 0,0 km/h (0 Bft) N 0,00 h 0,0 mm 0,0 UV-I 0 W/m 10,8 C 0,0 km/h (0 Bft)
30.07.2020 23:00 19,3 C 60 % 1017,9 hPa 0,0 mm 0,0 km/h (0 Bft) N 0,00 h 0,0 mm 0,0 UV-I 0 W/m 11,2 C 0,0 km/h (0 Bft)
31.07.2020 00:00 18,3 C 63 % 1018,0 hPa 0,0 mm 0,0 km/h (0 Bft) N 0,00 h 0,0 mm 0,0 UV-I 0 W/m 11,1 C 0,0 km/h (0 Bft)
31.07.2020 01:00 17,6 C 66 % 1017,9 hPa 0,0 mm 0,0 km/h (0 Bft) N 0,00 h 0,0 mm 0,0 UV-I 0 W/m 11,1 C 0,0 km/h (0 Bft)
31.07.2020 02:00 16,5 C 70 % 1017,9 hPa 0,0 mm 0,0 km/h (0 Bft) N 0,00 h 0,0 mm 0,0 UV-I 0 W/m 11,0 C 0,0 km/h (0 Bft)
31.07.2020 03:00 15,7 C 73 % 1017,8 hPa 0,0 mm 0,0 km/h (0 Bft) N 0,00 h 0,0 mm 0,0 UV-I 0 W/m 11,0 C 0,0 km/h (0 Bft)
31.07.2020 04:00 15,3 C 77 % 1017,6 hPa 0,0 mm 0,0 km/h (0 Bft) N 0,00 h 0,0 mm 0,0 UV-I 0 W/m 11,2 C 0,0 km/h (0 Bft)
31.07.2020 05:00 14,7 C 79 % 1017,6 hPa 0,0 mm 0,0 km/h (0 Bft) N 0,00 h 0,0 mm 0,0 UV-I 0 W/m 11,1 C 0,0 km/h (0 Bft)
31.07.2020 06:00 14,3 C 81 % 1017,5 hPa 0,0 mm 0,1 km/h (0 Bft) N 0,08 h 0,0 mm 0,0 UV-I 29 W/m 11,1 C 0,7 km/h (0 Bft)
31.07.2020 07:00 15,7 C 76 % 1017,5 hPa 0,0 mm 1,2 km/h (1 Bft) S-SW 0,42 h 0,0 mm 0,0 UV-I 120 W/m 11,5 C 6,1 km/h (2 Bft)
31.07.2020 08:00 18,5 C 65 % 1017,3 hPa 0,0 mm 3,1 km/h (1 Bft) O 1,00 h 0,0 mm 0,0 UV-I 285 W/m 11,9 C 10,4 km/h (2 Bft)
31.07.2020 09:00 21,8 C 52 % 1017,1 hPa 0,0 mm 3,6 km/h (1 Bft) O 1,00 h 0,1 mm 0,3 UV-I 528 W/m 11,4 C 9,8 km/h (2 Bft)
31.07.2020 10:00 24,7 C 44 % 1016,9 hPa 0,0 mm 3,6 km/h (1 Bft) W-SW 1,00 h 0,2 mm 1,0 UV-I 740 W/m 11,6 C 10,4 km/h (2 Bft)
31.07.2020 11:00 27,6 C 35 % 1016,7 hPa 0,0 mm 4,6 km/h (1 Bft) S 1,00 h 0,4 mm 2,0 UV-I 889 W/m 10,8 C 12,9 km/h (3 Bft)
31.07.2020 12:00 30,4 C 30 % 1016,2 hPa 0,0 mm 5,3 km/h (1 Bft) S 1,00 h 0,5 mm 3,9 UV-I 989 W/m 10,6 C 14,4 km/h (3 Bft)
31.07.2020 13:00 32,8 C 26 % 1015,5 hPa 0,0 mm 3,8 km/h (1 Bft) S 1,00 h 0,6 mm 4,4 UV-I 1032 W/m 10,6 C 12,2 km/h (2 Bft)
31.07.2020 14:00 34,6 C 24 % 1014,9 hPa 0,0 mm 3,8 km/h (1 Bft) S 1,00 h 0,6 mm 4,2 UV-I 1019 W/m 11,1 C 10,5 km/h (2 Bft)
31.07.2020 15:00 35,4 C 23 % 1014,3 hPa 0,0 mm 3,6 km/h (1 Bft) S 1,00 h 0,6 mm 3,3 UV-I 949 W/m 10,9 C 11,7 km/h (2 Bft)
31.07.2020 16:00 35,9 C 21 % 1013,6 hPa 0,0 mm 2,5 km/h (1 Bft) S-SW 1,00 h 0,6 mm 2,3 UV-I 827 W/m 9,8 C 8,7 km/h (2 Bft)
31.07.2020 17:00 36,5 C 20 % 1013,2 hPa 0,0 mm 3,3 km/h (1 Bft) S 1,00 h 0,5 mm 1,2 UV-I 664 W/m 9,7 C 10,9 km/h (2 Bft)
31.07.2020 18:00 35,8 C 21 % 1012,6 hPa 0,0 mm 2,0 km/h (1 Bft) S-SW 1,00 h 0,4 mm 0,5 UV-I 466 W/m 9,6 C 7,8 km/h (2 Bft)
31.07.2020 19:00 34,8 C 24 % 1012,2 hPa 0,0 mm 2,4 km/h (1 Bft) S-SW 1,00 h 0,3 mm 0,0 UV-I 266 W/m 11,2 C 8,5 km/h (2 Bft)
31.07.2020 20:00 32,9 C 29 % 1012,1 hPa 0,0 mm 1,2 km/h (1 Bft) SW 0,50 h 0,2 mm 0,0 UV-I 70 W/m 12,3 C 4,8 km/h (1 Bft)
31.07.2020 21:00 29,6 C 36 % 1012,1 hPa 0,0 mm 0,2 km/h (0 Bft) N 0,00 h 0,1 mm 0,0 UV-I 6 W/m 12,8 C 0,7 km/h (0 Bft)
31.07.2020 22:00 27,2 C 46 % 1012,4 hPa 0,0 mm 0,0 km/h (0 Bft) N 0,00 h 0,0 mm 0,0 UV-I 0 W/m 14,6 C 0,0 km/h (0 Bft)
31.07.2020 23:00 24,9 C 54 % 1012,3 hPa 0,0 mm 0,3 km/h (0 Bft) O 0,00 h 0,0 mm 0,0 UV-I 0 W/m 15,0 C 1,6 km/h (1 Bft)
01.08.2020 00:00 24,4 C 51 % 1012,3 hPa 0,0 mm 1,4 km/h (1 Bft) O 0,00 h 0,0 mm 0,0 UV-I 0 W/m 13,4 C 4,4 km/h (1 Bft)
01.08.2020 01:00 23,8 C 53 % 1012,3 hPa 0,0 mm 1,4 km/h (1 Bft) O 0,00 h 0,0 mm 0,0 UV-I 0 W/m 13,5 C 4,1 km/h (1 Bft)
01.08.2020 02:00 23,2 C 53 % 1012,1 hPa 0,0 mm 1,6 km/h (1 Bft) O 0,00 h 0,0 mm 0,0 UV-I 0 W/m 13,1 C 5,5 km/h (1 Bft)
01.08.2020 03:00 23,0 C 53 % 1011,9 hPa 0,0 mm 1,8 km/h (1 Bft) O 0,00 h 0,0 mm 0,0 UV-I 0 W/m 12,9 C 5,5 km/h (1 Bft)
01.08.2020 04:00 22,7 C 54 % 1012,1 hPa 0,0 mm 2,3 km/h (1 Bft) O 0,00 h 0,0 mm 0,0 UV-I 0 W/m 13,0 C 5,6 km/h (1 Bft)
01.08.2020 05:00 23,0 C 54 % 1012,2 hPa 0,0 mm 2,9 km/h (1 Bft) O 0,00 h 0,0 mm 0,0 UV-I 5 W/m 13,1 C 7,6 km/h (2 Bft)
01.08.2020 06:00 22,8 C 57 % 1012,5 hPa 0,0 mm 0,8 km/h (0 Bft) W 0,00 h 0,0 mm 0,0 UV-I 15 W/m 13,8 C 3,9 km/h (1 Bft)
01.08.2020 07:00 22,6 C 63 % 1012,8 hPa 0,0 mm 0,1 km/h (0 Bft) N 0,00 h 0,0 mm 0,0 UV-I 65 W/m 15,2 C 0,4 km/h (0 Bft)
01.08.2020 08:00 23,1 C 66 % 1012,9 hPa 0,0 mm 0,5 km/h (0 Bft) W-SW 0,00 h 0,1 mm 0,0 UV-I 91 W/m 16,5 C 2,4 km/h (1 Bft)
01.08.2020 09:00 23,7 C 66 % 1014,2 hPa 0,0 mm 5,7 km/h (1 Bft) SW 0,00 h 0,1 mm 0,0 UV-I 62 W/m 16,9 C 14,6 km/h (3 Bft)
01.08.2020 10:00 23,4 C 71 % 1014,1 hPa 0,0 mm 2,3 km/h (1 Bft) SW 0,00 h 0,1 mm 0,0 UV-I 105 W/m 17,9 C 7,8 km/h (2 Bft)
01.08.2020 11:00 23,1 C 71 % 1014,3 hPa 0,0 mm 0,1 km/h (0 Bft) N 0,00 h 0,1 mm 0,5 UV-I 150 W/m 17,5 C 1,1 km/h (1 Bft)
01.08.2020 12:00 24,0 C 70 % 1014,4 hPa 0,0 mm 0,0 km/h (0 Bft) N 0,00 h 0,1 mm 0,8 UV-I 274 W/m 18,2 C 0,0 km/h (0 Bft)
01.08.2020 13:00 25,7 C 61 % 1014,1 hPa 0,0 mm 0,4 km/h (0 Bft) NW 0,50 h 0,2 mm 2,1 UV-I 566 W/m 17,6 C 2,8 km/h (1 Bft)
01.08.2020 14:00 29,1 C 46 % 1013,5 hPa 0,0 mm 1,8 km/h (1 Bft) N-NW 1,00 h 0,3 mm 3,8 UV-I 970 W/m 16,0 C 8,9 km/h (2 Bft)
01.08.2020 15:00 31,1 C 39 % 1013,1 hPa 0,0 mm 4,9 km/h (1 Bft) N-NW 1,00 h 0,5 mm 3,0 UV-I 897 W/m 15,4 C 15,0 km/h (3 Bft)
01.08.2020 16:00 31,4 C 41 % 1012,9 hPa 0,0 mm 3,5 km/h (1 Bft) N-NO 1,00 h 0,5 mm 2,0 UV-I 752 W/m 16,4 C 15,6 km/h (3 Bft)
01.08.2020 17:00 30,8 C 43 % 1012,6 hPa 0,0 mm 3,6 km/h (1 Bft) N-NW 1,00 h 0,4 mm 0,9 UV-I 535 W/m 16,9 C 13,1 km/h (3 Bft)
01.08.2020 18:00 29,6 C 48 % 1012,6 hPa 0,0 mm 2,2 km/h (1 Bft) N-NO 1,00 h 0,3 mm 0,2 UV-I 390 W/m 17,4 C 11,8 km/h (2 Bft)
01.08.2020 19:00 27,5 C 55 % 1012,7 hPa 0,0 mm 0,3 km/h (0 Bft) N 0,50 h 0,2 mm 0,0 UV-I 124 W/m 17,6 C 2,9 km/h (1 Bft)
01.08.2020 20:00 25,9 C 62 % 1013,2 hPa 0,0 mm 0,4 km/h (0 Bft) NW 0,33 h 0,1 mm 0,0 UV-I 61 W/m 17,9 C 3,5 km/h (1 Bft)
01.08.2020 21:00 24,2 C 68 % 1013,8 hPa 0,0 mm 0,2 km/h (0 Bft) N 0,08 h 0,1 mm 0,0 UV-I 8 W/m 17,8 C 1,8 km/h (1 Bft)
01.08.2020 22:00 23,3 C 68 % 1014,2 hPa 0,0 mm 0,0 km/h (0 Bft) N 0,00 h 0,0 mm 0,0 UV-I 0 W/m 17,1 C 0,2 km/h (0 Bft)
01.08.2020 23:00 22,3 C 72 % 1014,2 hPa 0,0 mm 0,0 km/h (0 Bft) N 0,00 h 0,0 mm 0,0 UV-I 0 W/m 17,1 C 0,0 km/h (0 Bft)
02.08.2020 00:00 21,0 C 76 % 1014,4 hPa 1,5 mm 0,4 km/h (0 Bft) O 0,00 h 0,0 mm 0,0 UV-I 0 W/m 16,6 C 2,2 km/h (1 Bft)
02.08.2020 01:00 18,9 C 85 % 1014,4 hPa 0,0 mm 0,0 km/h (0 Bft) N 0,00 h 0,0 mm 0,0 UV-I 0 W/m 16,4 C 0,6 km/h (0 Bft)
02.08.2020 02:00 18,4 C 83 % 1014,3 hPa 0,0 mm 0,1 km/h (0 Bft) N 0,00 h 0,0 mm 0,0 UV-I 0 W/m 15,6 C 0,4 km/h (0 Bft)
02.08.2020 03:00 18,7 C 81 % 1014,2 hPa 0,0 mm 0,9 km/h (0 Bft) O 0,00 h 0,0 mm 0,0 UV-I 0 W/m 15,4 C 2,8 km/h (1 Bft)
02.08.2020 04:00 18,6 C 81 % 1014,1 hPa 0,0 mm 0,9 km/h (0 Bft) O 0,00 h 0,0 mm 0,0 UV-I 0 W/m 15,2 C 3,2 km/h (1 Bft)
02.08.2020 05:00 18,6 C 80 % 1014,0 hPa 0,0 mm 0,2 km/h (0 Bft) N 0,00 h 0,0 mm 0,0 UV-I 0 W/m 15,1 C 1,5 km/h (1 Bft)
02.08.2020 06:00 18,6 C 79 % 1014,0 hPa 0,0 mm 0,9 km/h (0 Bft) O 0,00 h 0,0 mm 0,0 UV-I 19 W/m 14,9 C 2,6 km/h (1 Bft)
02.08.2020 07:00 18,6 C 79 % 1014,1 hPa 0,0 mm 0,8 km/h (0 Bft) O 0,00 h 0,0 mm 0,0 UV-I 62 W/m 14,8 C 3,7 km/h (1 Bft)
02.08.2020 08:00 18,9 C 76 % 1014,3 hPa 0,0 mm 3,8 km/h (1 Bft) O 0,00 h 0,0 mm 0,0 UV-I 138 W/m 14,6 C 10,0 km/h (2 Bft)
02.08.2020 09:00 19,2 C 71 % 1014,6 hPa 0,0 mm 5,8 km/h (2 Bft) O 0,00 h 0,1 mm 0,1 UV-I 219 W/m 13,8 C 13,9 km/h (3 Bft)
02.08.2020 10:00 19,7 C 67 % 1014,7 hPa 0,0 mm 7,0 km/h (2 Bft) O 0,25 h 0,1 mm 0,7 UV-I 341 W/m 13,4 C 15,9 km/h (3 Bft)
02.08.2020 11:00 21,1 C 62 % 1014,6 hPa 0,0 mm 8,5 km/h (2 Bft) O 1,00 h 0,2 mm 2,0 UV-I 755 W/m 13,6 C 22,2 km/h (4 Bft)
02.08.2020 12:00 22,6 C 59 % 1014,6 hPa 0,0 mm 8,6 km/h (2 Bft) O 1,00 h 0,4 mm 2,9 UV-I 868 W/m 14,2 C 25,2 km/h (4 Bft)
02.08.2020 13:00 22,6 C 60 % 1014,5 hPa 0,0 mm 5,2 km/h (1 Bft) O 0,17 h 0,4 mm 1,7 UV-I 400 W/m 14,4 C 15,2 km/h (3 Bft)
02.08.2020 14:00 23,0 C 61 % 1014,5 hPa 0,0 mm 5,6 km/h (1 Bft) N 0,92 h 0,3 mm 2,9 UV-I 830 W/m 15,1 C 19,0 km/h (3 Bft)
02.08.2020 15:00 24,2 C 56 % 1014,2 hPa 0,0 mm 9,4 km/h (2 Bft) N-NO 1,00 h 0,4 mm 2,6 UV-I 885 W/m 14,9 C 26,1 km/h (4 Bft)
02.08.2020 16:00 24,1 C 52 % 1013,8 hPa 0,0 mm 4,0 km/h (1 Bft) N 0,42 h 0,4 mm 1,6 UV-I 500 W/m 13,7 C 16,7 km/h (3 Bft)
02.08.2020 17:00 22,9 C 52 % 1013,8 hPa 0,0 mm 0,8 km/h (0 Bft) NO 0,50 h 0,3 mm 1,0 UV-I 382 W/m 12,6 C 5,4 km/h (1 Bft)
02.08.2020 18:00 22,2 C 56 % 1013,8 hPa 0,0 mm 0,1 km/h (0 Bft) N 0,00 h 0,2 mm 0,0 UV-I 148 W/m 13,0 C 0,7 km/h (0 Bft)
02.08.2020 19:00 20,8 C 66 % 1014,1 hPa 0,0 mm 0,2 km/h (0 Bft) O 0,00 h 0,1 mm 0,0 UV-I 21 W/m 14,0 C 1,8 km/h (1 Bft)
02.08.2020 20:00 19,4 C 77 % 1014,3 hPa 0,0 mm 1,4 km/h (1 Bft) N-NW 0,00 h 0,0 mm 0,0 UV-I 10 W/m 15,3 C 4,1 km/h (1 Bft)
02.08.2020 21:00 18,8 C 77 % 1014,6 hPa 0,0 mm 1,2 km/h (1 Bft) N 0,00 h 0,0 mm 0,0 UV-I 0 W/m 14,8 C 3,7 km/h (1 Bft)
02.08.2020 22:00 18,7 C 73 % 1014,7 hPa 0,0 mm 0,1 km/h (0 Bft) N 0,00 h 0,0 mm 0,0 UV-I 0 W/m 13,8 C 0,4 km/h (0 Bft)
02.08.2020 23:00 18,3 C 67 % 1014,8 hPa 0,0 mm 0,0 km/h (0 Bft) N 0,00 h 0,0 mm 0,0 UV-I 0 W/m 12,1 C 0,4 km/h (0 Bft)
Min-Datum _ 30.07.20 31.07.20 27.07.20 - 27.07.20 - - - - - 30.07.20 27.07.20
_ Min-Zeit 06:05 17:20 20:05 - 00:00 - - - - - 16:55 00:00
Minimum _ 11,6 C 19 % 1006,2 hPa - 0,0 km/h (0 Bft) - - - - - 6,3 C 0,0 km/h (0 Bft)
Max-Datum _ 31.07.20 30.07.20 30.07.20 02.08.20 28.07.20 - 27.07.20 31.07.20 27.07.20 27.07.20 01.08.20 28.07.20
_ Max-Zeit 17:10 07:05 09:20 00:20 10:40 - 06:05 14:05 14:20 13:40 12:35 15:45
Maximum _ 36,7 C 86 % 1021,3 hPa 1,5 mm 24,2 km/h
N (4 Bft)
- 0,08 h 0,6 mm 4,7 UV-I 1171 W/m 18,5 C 48,9 km/h
N (6 Bft)
Durchschnitt _ 21,8 C 58 % 1015,1 hPa #1,5 mm 3,3 km/h (1 Bft) O #60:40 h #26,594 mm 1,8 UV-I 401 W/m 12,2 C 9,5 km/h (2 Bft)



© 1998 - 2020 www.pulheimwetter.de